Terminal Aerodrome Forecast
Issued by NWS

Home | Current Version | Previous Version | Text Only | Print | Product List | Glossary On
Versions: 1 2 3 4 5 6 7 8 9 10 11 12 13 14 15 16 17 18 19 20 21 22 23 24 25 26
978
FTUS43 KLSX 201135
TAFUIN
TAF
KUIN 201135Z 2012/2112 20009KT 5SM SHRA VCTS OVC015CB
     FM201500 25010KT 3SM -SHRA VCTS OVC008CB
     FM201800 29010KT 3SM -SHRA OVC008
     FM210000 32012KT P6SM -SHRA OVC010
     FM210200 33013G20KT P6SM OVC015
     FM210400 33014G21KT P6SM OVC035=

USA.gov is the U.S. government's official web portal to all federal, state and local government web resources and services.